Time;durP1;ratioP1;P1;durP2;ratioP2;P2;SDS_P1;SDS_P2;PMS_P1;PMS_P2;Temp;Humidity;BMP_temperature;BMP_pressure;BME280_temperature;BME280_humidity;BME280_pressure;Samples;Min_cycle;Max_cycle;Signal;HPM_P1;HPM_P2
2021/01/03 00:00:34;;;;;;;26.27;13.73;;;2.70;99.90;;;;;;4979305;28;20478;-67
2021/01/03 00:03:01;;;;;;;28.10;13.80;;;2.60;99.90;;;;;;4979091;28;20498;-67
2021/01/03 00:05:30;;;;;;;26.33;12.57;;;2.60;99.90;;;;;;4979595;28;20518;-66
2021/01/03 00:07:57;;;;;;;26.80;15.00;;;2.60;99.90;;;;;;4978792;28;20532;-68
2021/01/03 00:10:26;;;;;;;27.03;13.80;;;2.60;99.90;;;;;;4979764;28;20506;-68
2021/01/03 00:12:53;;;;;;;25.93;12.60;;;2.60;99.90;;;;;;4979515;28;20970;-67
2021/01/03 00:15:22;;;;;;;24.47;12.43;;;2.60;99.90;;;;;;4978520;28;20636;-67
2021/01/03 00:17:48;;;;;;;28.63;14.07;;;2.70;99.90;;;;;;4979159;28;20457;-67
2021/01/03 00:20:18;;;;;;;25.50;13.10;;;2.70;99.90;;;;;;4979145;28;20899;-68
2021/01/03 00:22:45;;;;;;;29.00;13.23;;;2.70;99.90;;;;;;4978964;28;20502;-68
2021/01/03 00:25:12;;;;;;;21.53;11.57;;;2.70;99.90;;;;;;4983142;28;20459;-67
2021/01/03 00:27:40;;;;;;;23.23;12.13;;;2.70;99.90;;;;;;4983392;28;20899;-68
2021/01/03 00:30:10;;;;;;;25.87;14.33;;;2.70;99.90;;;;;;4982478;28;20971;-68
2021/01/03 00:32:36;;;;;;;28.70;14.50;;;2.70;99.90;;;;;;4983220;28;20939;-67
2021/01/03 00:35:04;;;;;;;29.10;13.90;;;2.80;99.90;;;;;;4983619;28;20537;-68
2021/01/03 00:37:31;;;;;;;23.20;13.90;;;2.80;99.90;;;;;;4983212;28;20538;-68
2021/01/03 00:39:57;;;;;;;25.77;13.00;;;2.80;99.90;;;;;;4983067;28;20514;-67
2021/01/03 00:42:24;;;;;;;27.20;14.83;;;2.90;99.90;;;;;;4983251;28;20450;-68
2021/01/03 00:44:51;;;;;;;28.77;13.83;;;2.90;99.90;;;;;;4982561;28;20971;-68
2021/01/03 00:47:18;;;;;;;21.07;12.10;;;3.00;99.90;;;;;;4982491;28;20458;-67
2021/01/03 00:49:44;;;;;;;23.07;11.20;;;3.00;99.90;;;;;;4982442;28;20541;-67
2021/01/03 00:52:10;;;;;;;28.63;12.63;;;3.00;99.90;;;;;;4982852;28;20462;-67
2021/01/03 00:54:37;;;;;;;21.43;10.60;;;3.00;99.90;;;;;;4983050;28;20526;-67
2021/01/03 00:57:03;;;;;;;23.60;11.07;;;2.90;99.90;;;;;;4982094;28;20450;-67
2021/01/03 00:59:30;;;;;;;26.27;11.73;;;3.00;99.90;;;;;;4981678;28;20573;-67
2021/01/03 01:01:57;;;;;;;22.83;10.70;;;3.00;99.90;;;;;;4981668;28;20546;-67
2021/01/03 01:04:25;;;;;;;21.90;12.47;;;3.00;99.90;;;;;;4982625;28;21010;-67
2021/01/03 01:06:51;;;;;;;20.00;11.53;;;3.00;99.90;;;;;;4983358;28;20498;-68
2021/01/03 01:09:18;;;;;;;19.87;12.53;;;3.00;99.90;;;;;;4982378;28;20545;-68
2021/01/03 01:11:44;;;;;;;18.83;11.17;;;3.00;99.90;;;;;;4982093;28;20845;-68
2021/01/03 01:14:11;;;;;;;22.50;10.67;;;3.10;99.90;;;;;;4981893;28;20502;-68
2021/01/03 01:16:38;;;;;;;25.37;10.93;;;3.00;99.90;;;;;;4982849;28;20466;-68
2021/01/03 01:19:05;;;;;;;23.13;11.17;;;3.10;99.90;;;;;;4981909;28;20541;-68
2021/01/03 01:21:32;;;;;;;17.07;10.07;;;3.10;99.90;;;;;;4982635;28;20486;-68
2021/01/03 01:23:58;;;;;;;20.87;11.50;;;3.20;99.90;;;;;;4981358;28;21000;-68
2021/01/03 01:26:25;;;;;;;22.47;10.87;;;3.10;99.90;;;;;;4981745;28;20442;-68
2021/01/03 01:28:51;;;;;;;22.50;13.00;;;3.00;99.90;;;;;;4981238;28;20525;-68
2021/01/03 01:31:18;;;;;;;23.93;10.50;;;3.00;99.90;;;;;;4981667;28;20473;-67
2021/01/03 01:33:44;;;;;;;21.20;11.97;;;3.00;99.90;;;;;;4983783;28;20593;-68
2021/01/03 01:36:12;;;;;;;17.10;10.23;;;3.00;99.90;;;;;;4988974;28;20510;-69
2021/01/03 01:38:38;;;;;;;25.77;12.00;;;3.00;99.90;;;;;;4992062;28;20537;-68
2021/01/03 01:41:05;;;;;;;22.17;13.40;;;3.00;99.90;;;;;;4993980;28;20572;-68
2021/01/03 01:43:32;;;;;;;21.97;12.13;;;2.90;99.90;;;;;;5000948;28;20458;-68
2021/01/03 01:45:59;;;;;;;21.10;11.33;;;2.90;99.90;;;;;;5001467;28;20773;-68
2021/01/03 01:48:31;;;;;;;24.47;11.93;;;3.00;99.90;;;;;;5001211;28;20509;-68
2021/01/03 01:51:03;;;;;;;17.73;8.83;;;3.00;99.90;;;;;;4991714;28;20466;-68
2021/01/03 01:53:34;;;;;;;25.10;11.30;;;3.00;99.90;;;;;;4994689;28;20540;-67
2021/01/03 01:56:07;;;;;;;19.87;10.90;;;3.00;99.90;;;;;;4999742;28;20474;-68
2021/01/03 01:58:44;;;;;;;23.90;11.83;;;3.00;99.90;;;;;;4981610;28;20755;-69
2021/01/03 02:01:16;;;;;;;21.20;10.60;;;3.10;99.90;;;;;;4991005;28;20572;-68
2021/01/03 02:03:50;;;;;;;18.43;9.97;;;3.20;99.90;;;;;;5001510;28;20498;-68
2021/01/03 02:06:22;;;;;;;16.90;9.37;;;3.20;99.90;;;;;;5000848;28;20433;-68
2021/01/03 02:08:54;;;;;;;19.80;10.00;;;3.20;99.90;;;;;;4994149;28;20458;-68
2021/01/03 02:11:24;;;;;;;18.07;10.43;;;3.20;99.90;;;;;;4981517;28;20512;-68
2021/01/03 02:13:54;;;;;;;18.27;9.10;;;3.20;99.90;;;;;;4981085;28;20493;-67
2021/01/03 02:16:23;;;;;;;18.33;9.13;;;3.20;99.90;;;;;;4981319;28;20957;-68
2021/01/03 02:18:51;;;;;;;17.60;9.37;;;3.20;99.90;;;;;;4981251;28;20506;-67
2021/01/03 02:21:24;;;;;;;18.10;9.10;;;3.10;99.90;;;;;;4980642;28;20474;-68
2021/01/03 02:24:02;;;;;;;16.63;8.37;;;3.20;99.90;;;;;;4980866;28;20443;-68
2021/01/03 02:26:34;;;;;;;15.47;8.17;;;3.10;99.90;;;;;;4989219;28;20450;-68
2021/01/03 02:29:01;;;;;;;18.10;7.97;;;3.10;99.90;;;;;;4990775;28;20518;-67
2021/01/03 02:31:33;;;;;;;21.80;9.17;;;3.20;99.90;;;;;;4980560;28;20546;-68
2021/01/03 02:34:08;;;;;;;14.20;7.73;;;3.20;99.90;;;;;;4979543;28;20475;-69
2021/01/03 02:36:39;;;;;;;17.07;8.70;;;3.20;99.90;;;;;;4978853;28;20533;-68
2021/01/03 02:39:16;;;;;;;20.73;10.10;;;3.30;99.90;;;;;;4979032;28;20451;-68
2021/01/03 02:41:43;;;;;;;15.37;7.43;;;3.30;99.90;;;;;;4978694;28;20453;-68
2021/01/03 02:44:10;;;;;;;16.40;7.33;;;3.20;99.90;;;;;;4978023;28;20540;-67
2021/01/03 02:46:37;;;;;;;17.87;7.70;;;3.30;99.90;;;;;;4978273;28;20465;-68
2021/01/03 02:49:04;;;;;;;19.37;8.13;;;3.30;99.90;;;;;;4980060;28;20458;-68
2021/01/03 02:51:35;;;;;;;20.20;7.27;;;3.20;99.90;;;;;;4980181;28;20439;-68
2021/01/03 02:54:01;;;;;;;14.30;6.80;;;3.30;99.90;;;;;;4980365;28;20517;-68
2021/01/03 02:56:27;;;;;;;12.90;7.60;;;3.20;99.90;;;;;;4980403;28;20447;-67
2021/01/03 02:58:55;;;;;;;16.00;7.80;;;3.20;99.90;;;;;;4980216;28;20593;-67
2021/01/03 03:01:21;;;;;;;15.80;7.93;;;3.20;99.90;;;;;;4980031;28;20511;-68
2021/01/03 03:03:47;;;;;;;14.73;8.83;;;3.20;99.90;;;;;;4979999;28;20972;-68
2021/01/03 03:06:14;;;;;;;18.60;8.10;;;3.20;99.90;;;;;;4981097;28;20503;-68
2021/01/03 03:08:41;;;;;;;14.43;7.33;;;3.20;99.90;;;;;;4979830;28;20475;-69
2021/01/03 03:11:07;;;;;;;16.10;8.00;;;3.10;99.90;;;;;;4980900;28;20475;-68
2021/01/03 03:13:34;;;;;;;14.20;7.57;;;3.10;99.90;;;;;;4981281;28;20507;-69
2021/01/03 03:16:01;;;;;;;12.67;7.63;;;3.10;99.90;;;;;;4980079;28;20451;-69
2021/01/03 03:18:28;;;;;;;15.60;7.47;;;3.20;99.90;;;;;;4979895;28;20531;-67
2021/01/03 03:20:54;;;;;;;15.33;7.70;;;3.20;99.90;;;;;;4979821;28;20577;-68
2021/01/03 03:23:20;;;;;;;12.37;6.70;;;3.30;99.90;;;;;;4979728;28;20451;-67
2021/01/03 03:25:48;;;;;;;14.90;8.40;;;3.30;99.90;;;;;;4980093;28;20450;-66
2021/01/03 03:28:15;;;;;;;18.80;7.50;;;3.40;99.90;;;;;;4980178;28;20451;-67
2021/01/03 03:30:41;;;;;;;12.27;6.63;;;3.40;99.90;;;;;;4979272;28;20534;-68
2021/01/03 03:33:09;;;;;;;12.50;6.80;;;3.40;99.90;;;;;;4979765;28;20546;-67
2021/01/03 03:35:37;;;;;;;13.30;7.33;;;3.40;99.90;;;;;;4981045;28;20962;-68
2021/01/03 03:38:05;;;;;;;11.63;6.23;;;3.50;99.90;;;;;;4980440;28;20463;-68
2021/01/03 03:40:31;;;;;;;12.00;6.00;;;3.50;99.90;;;;;;4979783;28;20554;-69
2021/01/03 03:42:58;;;;;;;12.30;6.47;;;3.50;99.90;;;;;;4980338;28;20779;-68
2021/01/03 03:45:24;;;;;;;13.50;7.33;;;3.40;99.90;;;;;;4979574;28;20542;-67
2021/01/03 03:47:51;;;;;;;12.33;7.10;;;3.40;99.90;;;;;;4978814;28;20935;-67
2021/01/03 03:50:22;;;;;;;16.43;7.90;;;3.40;99.90;;;;;;4979728;28;20479;-67
2021/01/03 03:52:49;;;;;;;14.00;6.63;;;3.40;99.90;;;;;;4979371;28;20542;-67
2021/01/03 03:55:16;;;;;;;9.90;5.90;;;3.40;99.90;;;;;;4979561;28;20916;-69
2021/01/03 03:57:43;;;;;;;9.13;5.67;;;3.50;99.90;;;;;;4981648;28;20804;-67
2021/01/03 04:00:12;;;;;;;12.97;6.67;;;3.50;99.90;;;;;;4978673;28;20677;-69
2021/01/03 04:02:41;;;;;;;13.03;7.20;;;3.40;99.90;;;;;;4978947;28;20489;-68
2021/01/03 04:05:09;;;;;;;10.40;5.63;;;3.50;99.90;;;;;;4978868;28;20542;-68
2021/01/03 04:07:36;;;;;;;9.80;4.97;;;3.50;99.90;;;;;;4978749;28;20538;-67
2021/01/03 04:10:04;;;;;;;9.50;5.20;;;3.50;99.90;;;;;;4978692;28;20534;-67
2021/01/03 04:12:31;;;;;;;13.90;5.00;;;3.50;99.90;;;;;;4978698;28;20888;-67
2021/01/03 04:14:57;;;;;;;9.03;5.83;;;3.60;99.90;;;;;;4977764;28;20554;-66
2021/01/03 04:17:25;;;;;;;9.87;5.90;;;3.60;99.90;;;;;;4979543;28;20855;-67
2021/01/03 04:19:52;;;;;;;11.93;6.00;;;3.60;99.90;;;;;;4979334;28;20509;-67
2021/01/03 04:22:18;;;;;;;9.60;5.47;;;3.60;99.90;;;;;;4991277;23;20573;-67
2021/01/03 04:24:45;;;;;;;12.43;6.50;;;3.70;99.90;;;;;;5095625;23;20548;-69
2021/01/03 04:27:12;;;;;;;12.83;5.77;;;3.70;99.90;;;;;;4994737;28;20446;-68
2021/01/03 04:29:38;;;;;;;10.63;5.60;;;3.60;99.90;;;;;;4977986;28;20477;-68
2021/01/03 04:32:06;;;;;;;9.23;5.47;;;3.60;99.90;;;;;;4977877;28;20495;-67
2021/01/03 04:34:34;;;;;;;11.23;6.77;;;3.60;99.90;;;;;;4978734;28;20482;-67
2021/01/03 04:37:00;;;;;;;9.20;5.90;;;3.60;99.90;;;;;;4978342;28;20545;-67
2021/01/03 04:39:29;;;;;;;10.93;6.30;;;3.60;99.90;;;;;;4978423;28;20463;-67
2021/01/03 04:42:01;;;;;;;9.50;5.27;;;3.60;99.90;;;;;;4978071;28;20481;-67
2021/01/03 04:44:31;;;;;;;9.30;6.20;;;3.70;99.90;;;;;;4978407;28;20446;-67
2021/01/03 04:47:02;;;;;;;13.07;5.80;;;3.60;99.90;;;;;;4977717;28;20478;-68
2021/01/03 04:49:42;;;;;;;15.70;5.70;;;3.60;99.90;;;;;;4978408;28;20427;-68
2021/01/03 04:52:41;;;;;;;12.00;6.90;;;3.70;99.90;;;;;;4978413;28;20442;-67
2021/01/03 04:55:19;;;;;;;16.90;6.77;;;3.60;99.90;;;;;;4966003;28;20475;-66
2021/01/03 04:57:57;;;;;;;15.23;6.43;;;3.60;99.90;;;;;;4980783;28;20459;-68
2021/01/03 05:00:31;;;;;;;11.47;6.27;;;3.60;99.90;;;;;;4979266;28;20482;-69
2021/01/03 05:03:46;;;;;;;13.80;6.33;;;3.60;99.90;;;;;;4979447;28;20538;-68
2021/01/03 05:06:16;;;;;;;12.27;6.80;;;3.50;99.90;;;;;;4978489;28;20526;-68
2021/01/03 05:08:47;;;;;;;13.73;7.23;;;3.50;99.90;;;;;;4978883;28;20545;-68
2021/01/03 05:11:15;;;;;;;10.87;4.97;;;3.40;99.90;;;;;;4981162;28;20467;-67
2021/01/03 05:13:56;;;;;;;11.13;5.40;;;3.50;99.90;;;;;;4981863;28;20538;-67
2021/01/03 05:16:22;;;;;;;10.63;6.63;;;3.50;99.90;;;;;;4981508;28;20482;-67
2021/01/03 05:18:48;;;;;;;11.83;6.67;;;3.40;99.90;;;;;;4982180;28;20979;-67
2021/01/03 05:21:15;;;;;;;9.10;5.87;;;3.40;99.90;;;;;;4981669;28;20530;-67
2021/01/03 05:23:58;;;;;;;17.90;7.97;;;3.40;99.90;;;;;;4981018;28;20487;-67
2021/01/03 05:26:31;;;;;;;10.70;5.17;;;3.30;99.90;;;;;;4981904;28;20469;-67
2021/01/03 05:28:59;;;;;;;11.00;7.07;;;3.40;99.90;;;;;;4981287;28;20446;-68
2021/01/03 05:31:26;;;;;;;14.50;7.30;;;3.30;99.90;;;;;;4981592;28;20459;-68
2021/01/03 05:33:55;;;;;;;11.30;6.73;;;3.40;99.90;;;;;;4982241;28;20920;-68
2021/01/03 05:36:29;;;;;;;15.50;6.97;;;3.50;99.90;;;;;;4981020;28;20442;-68
2021/01/03 05:38:56;;;;;;;14.27;7.17;;;3.50;99.90;;;;;;4981391;28;20974;-68
2021/01/03 05:41:34;;;;;;;10.70;6.87;;;3.50;99.90;;;;;;4981382;28;20478;-67
2021/01/03 05:44:11;;;;;;;12.93;5.97;;;3.50;99.90;;;;;;4981967;28;20435;-67
2021/01/03 05:46:42;;;;;;;17.30;7.67;;;3.40;99.90;;;;;;4980980;28;21007;-66
2021/01/03 05:49:13;;;;;;;11.00;6.83;;;3.30;99.90;;;;;;4981568;28;20545;-66
2021/01/03 05:51:42;;;;;;;12.80;6.27;;;3.30;99.90;;;;;;4981842;28;20537;-67
2021/01/03 05:54:13;;;;;;;15.30;7.70;;;3.40;99.90;;;;;;4981905;28;20494;-67
2021/01/03 05:56:40;;;;;;;11.70;6.00;;;3.30;99.90;;;;;;4981787;28;20458;-67
2021/01/03 05:59:13;;;;;;;13.40;6.90;;;3.30;99.90;;;;;;4982362;28;20534;-68
2021/01/03 06:01:39;;;;;;;15.07;8.70;;;3.30;99.90;;;;;;4980811;28;20975;-67
2021/01/03 06:04:08;;;;;;;17.37;8.17;;;3.30;99.90;;;;;;4981164;28;20593;-67
2021/01/03 06:06:46;;;;;;;12.33;7.40;;;3.30;99.90;;;;;;4981190;28;20602;-68
2021/01/03 06:09:14;;;;;;;11.63;6.10;;;3.40;99.90;;;;;;4981004;28;20443;-67
2021/01/03 06:11:41;;;;;;;14.50;7.63;;;3.30;99.90;;;;;;4981233;28;20856;-67
2021/01/03 06:14:10;;;;;;;14.70;8.50;;;3.30;99.90;;;;;;4981270;28;20478;-68
2021/01/03 06:16:46;;;;;;;12.03;5.67;;;3.30;99.90;;;;;;4981365;28;20463;-68
2021/01/03 06:19:27;;;;;;;9.83;5.73;;;3.30;99.90;;;;;;4981584;28;20525;-68
2021/01/03 06:21:54;;;;;;;15.03;7.53;;;3.30;99.90;;;;;;4980221;28;20491;-68
2021/01/03 06:24:25;;;;;;;11.80;5.80;;;3.30;99.90;;;;;;4981698;28;20927;-70
2021/01/03 06:26:54;;;;;;;10.83;5.53;;;3.40;99.90;;;;;;4981877;28;20510;-68
2021/01/03 06:29:30;;;;;;;10.80;7.43;;;3.30;99.90;;;;;;4981210;28;21102;-68
2021/01/03 06:32:30;;;;;;;13.00;6.20;;;3.30;99.90;;;;;;4980683;28;20492;-68
2021/01/03 06:35:02;;;;;;;15.50;6.70;;;3.30;99.90;;;;;;4980398;28;20446;-68
2021/01/03 06:37:36;;;;;;;14.10;6.23;;;3.30;99.90;;;;;;4981013;28;20438;-67
2021/01/03 06:40:09;;;;;;;10.73;6.87;;;3.30;99.90;;;;;;4980715;28;20489;-67
2021/01/03 06:43:04;;;;;;;11.20;5.70;;;3.40;99.90;;;;;;4980326;28;20446;-68
2021/01/03 06:46:00;;;;;;;11.27;5.90;;;3.40;99.90;;;;;;4980640;28;20827;-68
2021/01/03 06:48:48;;;;;;;9.87;5.80;;;3.30;99.90;;;;;;4980637;28;20534;-68
2021/01/03 06:51:46;;;;;;;8.43;4.40;;;3.30;99.90;;;;;;4980210;28;20522;-69
2021/01/03 06:54:46;;;;;;;13.47;6.70;;;3.40;99.90;;;;;;4980101;28;20499;-68
2021/01/03 06:57:34;;;;;;;12.10;5.23;;;3.40;99.90;;;;;;4980106;28;20539;-67
2021/01/03 07:00:25;;;;;;;12.00;5.27;;;3.50;99.90;;;;;;4967450;28;20599;-68
2021/01/03 07:02:56;;;;;;;8.00;5.73;;;3.50;99.90;;;;;;4965134;28;20546;-67
2021/01/03 07:05:23;;;;;;;8.73;4.97;;;3.40;99.90;;;;;;4979801;28;20455;-68
2021/01/03 07:08:02;;;;;;;13.03;7.00;;;3.40;99.90;;;;;;4980524;28;20447;-68
2021/01/03 07:10:38;;;;;;;12.50;6.97;;;3.40;99.90;;;;;;4980455;28;20496;-68
2021/01/03 07:13:42;;;;;;;12.70;7.17;;;3.40;99.90;;;;;;4979799;28;20521;-68
2021/01/03 07:16:30;;;;;;;13.70;5.93;;;3.40;99.90;;;;;;4979566;28;20534;-67
2021/01/03 07:19:03;;;;;;;11.00;6.60;;;3.40;99.90;;;;;;4993091;28;20927;-66
2021/01/03 07:21:41;;;;;;;11.70;7.00;;;3.40;99.90;;;;;;4999461;28;20482;-67
2021/01/03 07:24:30;;;;;;;11.53;7.17;;;3.30;99.90;;;;;;4999125;28;20507;-66
2021/01/03 07:27:29;;;;;;;14.20;6.90;;;3.30;99.90;;;;;;4998894;28;20508;-67
2021/01/03 07:30:23;;;;;;;12.70;8.13;;;3.30;99.90;;;;;;4966306;28;20458;-67
2021/01/03 07:32:58;;;;;;;12.50;7.50;;;3.40;99.90;;;;;;4992192;28;20488;-67
2021/01/03 07:35:39;;;;;;;15.67;6.87;;;3.30;99.90;;;;;;4999954;28;20477;-69
2021/01/03 07:38:20;;;;;;;11.80;6.60;;;3.30;99.90;;;;;;4998797;28;20978;-67
2021/01/03 07:40:54;;;;;;;12.60;7.10;;;3.30;99.90;;;;;;4998843;28;20806;-67
2021/01/03 07:43:21;;;;;;;8.97;5.93;;;3.30;99.90;;;;;;4998486;28;20545;-67
2021/01/03 07:45:50;;;;;;;15.50;8.33;;;3.30;99.90;;;;;;4998756;28;20556;-67
2021/01/03 07:48:35;;;;;;;12.13;6.60;;;3.30;99.90;;;;;;4998358;28;20907;-67
2021/01/03 07:51:03;;;;;;;17.67;8.67;;;3.30;99.90;;;;;;4998710;28;20493;-66
2021/01/03 07:53:34;;;;;;;14.33;7.67;;;3.30;99.90;;;;;;4998468;28;20541;-67
2021/01/03 07:56:15;;;;;;;10.97;6.27;;;3.30;99.90;;;;;;4998542;28;20963;-67
2021/01/03 07:58:41;;;;;;;10.57;6.13;;;3.30;99.90;;;;;;4998511;28;20529;-68
2021/01/03 08:01:11;;;;;;;12.97;6.00;;;3.20;99.90;;;;;;4998214;28;20496;-68
2021/01/03 08:03:38;;;;;;;11.40;6.20;;;3.20;99.90;;;;;;4998721;28;20545;-67
2021/01/03 08:06:06;;;;;;;14.83;7.20;;;3.20;99.90;;;;;;4999002;28;20546;-68
2021/01/03 08:08:33;;;;;;;13.17;7.53;;;3.20;99.90;;;;;;4998162;28;20970;-68
2021/01/03 08:11:14;;;;;;;12.80;7.20;;;3.10;99.90;;;;;;4998922;28;20536;-67
2021/01/03 08:13:44;;;;;;;17.33;8.83;;;3.20;99.90;;;;;;4999276;28;20430;-68
2021/01/03 08:16:12;;;;;;;13.53;7.50;;;3.10;99.90;;;;;;4998648;28;20540;-67
2021/01/03 08:18:41;;;;;;;15.10;6.50;;;3.10;99.90;;;;;;4999238;28;20473;-68
2021/01/03 08:21:16;;;;;;;17.70;7.40;;;3.10;99.90;;;;;;4994250;28;20574;-67
2021/01/03 08:23:43;;;;;;;13.50;6.80;;;3.10;99.90;;;;;;4978297;28;20472;-66
2021/01/03 08:26:12;;;;;;;16.07;7.90;;;3.00;99.90;;;;;;4978701;28;20902;-68
2021/01/03 08:28:49;;;;;;;11.87;5.83;;;3.00;99.90;;;;;;4979181;28;20546;-69
2021/01/03 08:31:16;;;;;;;10.37;6.60;;;3.10;99.90;;;;;;4983442;28;20493;-67
2021/01/03 08:33:43;;;;;;;11.57;6.47;;;3.10;99.90;;;;;;4997527;28;20496;-68
2021/01/03 08:36:14;;;;;;;16.80;8.13;;;3.10;99.90;;;;;;4997072;28;20473;-66
2021/01/03 08:38:41;;;;;;;12.80;6.50;;;3.10;99.90;;;;;;4997226;28;20509;-67
2021/01/03 08:41:16;;;;;;;13.63;7.97;;;3.00;99.90;;;;;;4998074;28;20561;-67
2021/01/03 08:43:43;;;;;;;13.50;6.80;;;3.00;99.90;;;;;;5005959;28;20454;-66
2021/01/03 08:46:11;;;;;;;14.80;7.67;;;3.00;99.90;;;;;;4994671;28;20458;-67
2021/01/03 08:48:39;;;;;;;11.57;6.80;;;3.00;99.90;;;;;;4996031;28;20474;-67
2021/01/03 08:51:09;;;;;;;14.77;7.67;;;3.00;99.90;;;;;;4994898;28;20446;-66
2021/01/03 08:53:36;;;;;;;10.20;6.57;;;3.00;99.90;;;;;;5003544;28;20557;-67
2021/01/03 08:56:07;;;;;;;19.03;7.10;;;3.00;99.90;;;;;;5009355;28;20853;-68
2021/01/03 08:58:36;;;;;;;14.70;8.10;;;2.90;99.90;;;;;;5005235;28;21015;-68
2021/01/03 09:01:04;;;;;;;12.40;7.13;;;2.90;99.90;;;;;;5004986;28;20818;-67
2021/01/03 09:03:33;;;;;;;10.17;5.80;;;3.00;99.90;;;;;;5013984;28;20450;-69
2021/01/03 09:06:01;;;;;;;13.07;6.97;;;3.00;99.90;;;;;;5013688;28;20453;-68
2021/01/03 09:08:30;;;;;;;12.23;7.73;;;3.00;99.90;;;;;;5008916;28;20519;-68
2021/01/03 09:11:12;;;;;;;12.27;7.60;;;2.90;99.90;;;;;;5005769;28;20987;-68
2021/01/03 09:13:46;;;;;;;17.30;7.93;;;2.90;99.90;;;;;;5002168;28;20979;-68
2021/01/03 09:16:22;;;;;;;12.20;7.60;;;2.90;99.90;;;;;;4995874;28;20461;-68
2021/01/03 09:19:05;;;;;;;11.80;7.03;;;2.90;99.90;;;;;;4992579;28;20473;-68
2021/01/03 09:21:32;;;;;;;9.50;5.73;;;3.00;99.90;;;;;;5004589;28;20506;-68
2021/01/03 09:24:02;;;;;;;15.40;7.73;;;3.10;99.90;;;;;;5005544;28;20488;-67
2021/01/03 09:26:41;;;;;;;15.53;6.53;;;3.10;99.90;;;;;;5004720;28;20458;-68
2021/01/03 09:29:12;;;;;;;9.40;6.50;;;3.20;99.90;;;;;;5004078;28;20446;-68
2021/01/03 09:31:55;;;;;;;11.90;5.80;;;3.10;99.90;;;;;;5003006;28;20511;-69
2021/01/03 09:34:30;;;;;;;9.63;5.90;;;3.10;99.90;;;;;;4984638;28;20454;-68
2021/01/03 09:37:07;;;;;;;11.83;6.53;;;3.10;99.90;;;;;;5005256;28;20492;-68
2021/01/03 09:39:42;;;;;;;12.37;6.60;;;3.00;99.90;;;;;;5003990;28;20449;-68
2021/01/03 09:42:38;;;;;;;11.00;5.17;;;3.00;99.90;;;;;;5004001;28;20560;-68
2021/01/03 09:45:32;;;;;;;8.43;5.50;;;3.00;99.90;;;;;;5001026;28;20887;-68
2021/01/03 09:47:59;;;;;;;10.87;6.33;;;3.00;99.90;;;;;;4993619;28;20811;-67
2021/01/03 09:50:32;;;;;;;12.23;6.10;;;3.10;99.90;;;;;;5004376;28;20441;-68
2021/01/03 09:53:10;;;;;;;10.40;6.10;;;3.10;99.90;;;;;;5003836;28;20539;-67
2021/01/03 09:55:45;;;;;;;10.73;5.30;;;3.00;99.90;;;;;;5004462;28;20468;-68
2021/01/03 09:58:12;;;;;;;7.00;4.83;;;3.00;99.90;;;;;;4985889;28;20542;-68
2021/01/03 10:00:59;;;;;;;12.57;6.10;;;3.00;99.90;;;;;;4995850;28;20552;-67
2021/01/03 10:03:35;;;;;;;11.63;6.53;;;2.90;99.90;;;;;;4999983;28;20589;-72
2021/01/03 10:06:14;;;;;;;10.70;5.73;;;2.90;99.90;;;;;;5000706;28;20469;-73
2021/01/03 10:08:41;;;;;;;7.60;4.67;;;2.90;99.90;;;;;;4997803;28;20513;-74
2021/01/03 10:11:08;;;;;;;9.10;4.90;;;2.90;99.90;;;;;;5002107;28;20445;-73
2021/01/03 10:13:35;;;;;;;8.10;4.63;;;2.90;99.90;;;;;;5002375;28;20454;-71
2021/01/03 10:16:18;;;;;;;9.10;6.47;;;2.90;99.90;;;;;;5002079;28;20609;-72
2021/01/03 10:18:45;;;;;;;9.07;5.70;;;2.90;99.90;;;;;;5000742;28;20480;-72
2021/01/03 10:21:20;;;;;;;10.20;5.10;;;2.90;99.90;;;;;;5000861;28;20541;-72
2021/01/03 10:23:59;;;;;;;7.40;4.83;;;2.90;99.90;;;;;;5000142;28;20500;-73
2021/01/03 10:26:28;;;;;;;8.00;4.27;;;2.90;99.90;;;;;;5003061;28;20525;-73
2021/01/03 10:28:54;;;;;;;10.30;6.33;;;2.90;99.90;;;;;;5002726;28;20521;-72
2021/01/03 10:31:21;;;;;;;9.30;6.00;;;2.90;99.90;;;;;;5002239;28;20465;-72
2021/01/03 10:33:49;;;;;;;11.10;6.37;;;2.90;99.90;;;;;;5000525;28;20462;-72
2021/01/03 10:36:20;;;;;;;11.37;5.63;;;2.90;99.90;;;;;;5003106;28;20504;-71
2021/01/03 10:38:47;;;;;;;9.93;6.47;;;2.90;99.90;;;;;;5001268;28;20485;-72
2021/01/03 10:41:15;;;;;;;6.27;4.17;;;3.00;99.90;;;;;;5008934;28;20537;-72
2021/01/03 10:43:42;;;;;;;9.10;4.90;;;3.10;99.90;;;;;;5008946;28;20481;-73
2021/01/03 10:46:09;;;;;;;7.53;5.37;;;3.10;99.90;;;;;;5000860;28;20462;-71
2021/01/03 10:48:35;;;;;;;11.30;5.70;;;3.10;99.90;;;;;;5000833;28;20442;-71
2021/01/03 10:51:02;;;;;;;12.20;5.83;;;3.00;99.90;;;;;;5000733;28;20929;-72
2021/01/03 10:53:28;;;;;;;12.93;7.40;;;3.00;99.90;;;;;;5000881;28;20517;-72
2021/01/03 10:55:55;;;;;;;10.90;6.50;;;3.00;99.90;;;;;;5000852;28;20524;-71
2021/01/03 10:58:22;;;;;;;9.30;5.57;;;3.00;99.90;;;;;;5000843;28;20567;-72
2021/01/03 11:00:49;;;;;;;8.33;5.70;;;3.00;99.90;;;;;;4998965;28;20513;-72
2021/01/03 11:03:18;;;;;;;8.50;5.80;;;3.00;99.90;;;;;;4994541;28;20815;-72
2021/01/03 11:05:45;;;;;;;7.27;4.03;;;3.00;99.90;;;;;;5002676;28;20449;-74
2021/01/03 11:08:11;;;;;;;7.00;4.50;;;3.00;99.90;;;;;;5001178;28;20474;-73
2021/01/03 11:10:37;;;;;;;12.93;5.60;;;3.00;99.90;;;;;;5001578;28;20438;-72
2021/01/03 11:13:04;;;;;;;7.67;5.43;;;3.10;99.90;;;;;;5001049;28;20552;-71
2021/01/03 11:15:31;;;;;;;6.90;5.10;;;3.10;99.90;;;;;;5001293;28;20446;-72
2021/01/03 11:17:57;;;;;;;9.00;4.97;;;3.10;99.90;;;;;;4995899;28;20549;-72
2021/01/03 11:20:24;;;;;;;11.40;6.53;;;3.20;99.90;;;;;;4999960;28;20482;-73
2021/01/03 11:22:50;;;;;;;8.63;5.00;;;3.20;99.90;;;;;;5001149;28;20660;-72
2021/01/03 11:25:17;;;;;;;10.17;5.20;;;3.20;99.90;;;;;;5000272;28;20509;-69
2021/01/03 11:27:43;;;;;;;7.87;5.73;;;3.20;99.90;;;;;;5003209;28;20502;-69
2021/01/03 11:30:12;;;;;;;10.00;4.93;;;3.20;99.90;;;;;;5007873;28;20450;-69
2021/01/03 11:32:42;;;;;;;13.13;5.93;;;3.20;99.90;;;;;;5007321;28;20446;-69
2021/01/03 11:35:10;;;;;;;8.90;4.80;;;3.20;99.90;;;;;;5008583;28;20446;-70
2021/01/03 11:37:37;;;;;;;8.17;4.87;;;3.10;99.90;;;;;;5007158;28;20454;-70
2021/01/03 11:40:06;;;;;;;9.03;4.33;;;3.10;99.90;;;;;;4994088;28;20939;-71
2021/01/03 11:42:34;;;;;;;6.50;4.73;;;3.10;99.90;;;;;;4981723;28;20776;-69
2021/01/03 11:45:01;;;;;;;7.17;4.17;;;3.10;99.90;;;;;;4988282;28;20450;-69
2021/01/03 11:47:29;;;;;;;8.67;4.93;;;3.20;99.90;;;;;;4994569;28;20450;-70
2021/01/03 11:49:57;;;;;;;9.67;4.37;;;3.20;99.90;;;;;;4991248;28;20498;-71
2021/01/03 11:52:24;;;;;;;8.70;4.70;;;3.20;99.90;;;;;;4985289;28;20534;-70
2021/01/03 11:54:51;;;;;;;9.70;4.57;;;3.20;99.90;;;;;;4990500;28;20521;-69
2021/01/03 11:57:18;;;;;;;6.83;4.70;;;3.30;99.90;;;;;;4992447;28;20454;-71
2021/01/03 11:59:45;;;;;;;7.07;4.57;;;3.30;99.90;;;;;;5009043;28;20463;-70
2021/01/03 12:02:12;;;;;;;15.50;6.97;;;3.30;99.90;;;;;;5002424;28;21016;-70
2021/01/03 12:04:39;;;;;;;7.30;4.60;;;3.20;99.90;;;;;;4994042;28;20438;-70
2021/01/03 12:07:09;;;;;;;7.20;4.83;;;3.60;99.90;;;;;;5000519;28;20475;-72
2021/01/03 12:09:36;;;;;;;6.30;4.87;;;3.50;99.90;;;;;;5003082;28;20969;-71
2021/01/03 12:12:06;;;;;;;6.50;4.20;;;3.40;99.90;;;;;;5013756;28;20439;-71
2021/01/03 12:14:33;;;;;;;6.53;4.43;;;3.40;99.90;;;;;;5005372;28;20452;-71
2021/01/03 12:17:01;;;;;;;5.47;4.20;;;3.30;99.90;;;;;;4998349;28;20528;-69
2021/01/03 12:19:28;;;;;;;6.30;4.07;;;3.30;99.90;;;;;;5010944;28;20442;-68
2021/01/03 12:21:56;;;;;;;6.07;3.57;;;3.20;99.90;;;;;;5007851;28;20474;-74
2021/01/03 12:24:23;;;;;;;7.57;4.40;;;3.20;99.90;;;;;;5000173;28;20561;-72
2021/01/03 12:26:50;;;;;;;5.57;3.40;;;3.20;99.90;;;;;;5009399;28;20456;-74
2021/01/03 12:29:18;;;;;;;6.87;3.20;;;3.20;99.90;;;;;;5002889;28;20470;-72
2021/01/03 12:31:48;;;;;;;7.23;3.97;;;3.20;99.90;;;;;;4994129;28;20483;-73
2021/01/03 12:34:16;;;;;;;8.33;4.63;;;3.20;99.90;;;;;;5001610;28;20473;-73
2021/01/03 12:36:43;;;;;;;6.97;3.30;;;3.20;99.90;;;;;;4997078;28;20430;-74
2021/01/03 12:39:12;;;;;;;6.37;4.10;;;3.30;99.90;;;;;;5004447;28;20462;-73
2021/01/03 12:41:41;;;;;;;5.57;3.57;;;3.30;99.90;;;;;;5001512;28;20524;-71
2021/01/03 12:44:08;;;;;;;6.77;5.23;;;3.30;99.90;;;;;;4999174;28;20525;-73
2021/01/03 12:46:39;;;;;;;6.73;3.77;;;3.30;99.90;;;;;;4998475;28;20459;-74
2021/01/03 12:49:09;;;;;;;5.90;3.93;;;3.20;99.90;;;;;;4989518;28;20490;-72
2021/01/03 12:51:35;;;;;;;7.07;4.43;;;3.20;99.90;;;;;;5000949;28;20904;-68
2021/01/03 12:54:02;;;;;;;10.60;4.57;;;3.30;99.90;;;;;;5009204;28;20495;-66
2021/01/03 12:56:30;;;;;;;12.40;7.80;;;3.30;99.90;;;;;;5002970;28;20760;-66
2021/01/03 12:59:00;;;;;;;10.67;5.93;;;3.20;99.90;;;;;;5005374;28;20455;-66
2021/01/03 13:01:31;;;;;;;16.30;9.40;;;3.20;99.90;;;;;;4998526;28;20482;-65
2021/01/03 13:04:01;;;;;;;8.33;4.90;;;3.10;99.90;;;;;;5001918;28;20441;-66
2021/01/03 13:06:27;;;;;;;4.33;3.87;;;3.10;99.90;;;;;;5003304;28;20473;-65